sensor_id;sensor_type;location;lat;lon;timestamp;P1;durP1;ratioP1;P2;durP2;ratioP2
44204;SDS011;30163;42.698;23.344;2023-06-26T00:01:40;40.97;;;28.00;;
44204;SDS011;30163;42.698;23.344;2023-06-26T00:04:05;46.15;;;27.35;;
44204;SDS011;30163;42.698;23.344;2023-06-26T00:06:30;44.83;;;27.05;;
44204;SDS011;30163;42.698;23.344;2023-06-26T00:08:56;41.72;;;26.92;;
44204;SDS011;30163;42.698;23.344;2023-06-26T00:11:23;41.47;;;25.02;;
44204;SDS011;30163;42.698;23.344;2023-06-26T00:13:49;45.08;;;25.52;;
44204;SDS011;30163;42.698;23.344;2023-06-26T00:16:15;39.47;;;24.38;;
44204;SDS011;30163;42.698;23.344;2023-06-26T00:18:40;44.40;;;26.88;;
44204;SDS011;30163;42.698;23.344;2023-06-26T00:21:06;43.60;;;24.83;;
44204;SDS011;30163;42.698;23.344;2023-06-26T00:23:31;43.65;;;25.55;;
44204;SDS011;30163;42.698;23.344;2023-06-26T00:26:02;43.70;;;24.92;;
44204;SDS011;30163;42.698;23.344;2023-06-26T00:28:30;43.92;;;26.13;;
44204;SDS011;30163;42.698;23.344;2023-06-26T00:30:55;33.58;;;22.88;;
44204;SDS011;30163;42.698;23.344;2023-06-26T00:33:21;44.97;;;25.05;;
44204;SDS011;30163;42.698;23.344;2023-06-26T00:35:47;36.45;;;24.48;;
44204;SDS011;30163;42.698;23.344;2023-06-26T00:38:12;38.70;;;21.58;;
44204;SDS011;30163;42.698;23.344;2023-06-26T00:40:38;37.38;;;22.30;;
44204;SDS011;30163;42.698;23.344;2023-06-26T00:43:03;36.90;;;22.70;;
44204;SDS011;30163;42.698;23.344;2023-06-26T00:45:28;40.13;;;22.95;;
44204;SDS011;30163;42.698;23.344;2023-06-26T00:47:55;34.35;;;22.02;;
44204;SDS011;30163;42.698;23.344;2023-06-26T00:50:21;38.03;;;21.77;;
44204;SDS011;30163;42.698;23.344;2023-06-26T00:52:46;40.08;;;22.15;;
44204;SDS011;30163;42.698;23.344;2023-06-26T00:55:12;35.03;;;20.80;;
44204;SDS011;30163;42.698;23.344;2023-06-26T00:57:37;52.10;;;21.58;;
44204;SDS011;30163;42.698;23.344;2023-06-26T01:00:03;33.80;;;21.65;;
44204;SDS011;30163;42.698;23.344;2023-06-26T01:02:29;34.97;;;19.23;;
44204;SDS011;30163;42.698;23.344;2023-06-26T01:04:58;38.95;;;20.65;;
44204;SDS011;30163;42.698;23.344;2023-06-26T01:07:24;35.15;;;22.13;;
44204;SDS011;30163;42.698;23.344;2023-06-26T01:09:49;34.45;;;19.70;;
44204;SDS011;30163;42.698;23.344;2023-06-26T01:12:15;31.73;;;18.88;;
44204;SDS011;30163;42.698;23.344;2023-06-26T01:14:40;30.73;;;19.40;;
44204;SDS011;30163;42.698;23.344;2023-06-26T01:17:06;34.33;;;19.80;;
44204;SDS011;30163;42.698;23.344;2023-06-26T01:19:33;30.58;;;19.40;;
44204;SDS011;30163;42.698;23.344;2023-06-26T01:22:10;28.85;;;18.95;;
44204;SDS011;30163;42.698;23.344;2023-06-26T01:24:45;35.88;;;20.60;;
44204;SDS011;30163;42.698;23.344;2023-06-26T01:27:18;33.67;;;20.23;;
44204;SDS011;30163;42.698;23.344;2023-06-26T01:29:45;48.92;;;20.38;;
44204;SDS011;30163;42.698;23.344;2023-06-26T01:32:10;31.20;;;19.80;;
44204;SDS011;30163;42.698;23.344;2023-06-26T01:34:36;34.15;;;19.52;;
44204;SDS011;30163;42.698;23.344;2023-06-26T01:37:02;33.22;;;19.67;;
44204;SDS011;30163;42.698;23.344;2023-06-26T01:39:28;31.33;;;20.55;;
44204;SDS011;30163;42.698;23.344;2023-06-26T01:41:53;33.90;;;20.27;;
44204;SDS011;30163;42.698;23.344;2023-06-26T01:44:28;29.67;;;20.27;;
44204;SDS011;30163;42.698;23.344;2023-06-26T01:47:04;31.35;;;20.75;;
44204;SDS011;30163;42.698;23.344;2023-06-26T01:57:41;37.03;;;20.90;;
44204;SDS011;30163;42.698;23.344;2023-06-26T02:00:07;36.17;;;21.08;;
44204;SDS011;30163;42.698;23.344;2023-06-26T02:02:35;32.95;;;20.92;;
44204;SDS011;30163;42.698;23.344;2023-06-26T02:05:01;36.65;;;22.05;;
44204;SDS011;30163;42.698;23.344;2023-06-26T02:07:26;34.00;;;22.38;;
44204;SDS011;30163;42.698;23.344;2023-06-26T02:09:51;33.97;;;21.15;;
44204;SDS011;30163;42.698;23.344;2023-06-26T02:12:17;32.50;;;22.25;;
44204;SDS011;30163;42.698;23.344;2023-06-26T02:14:42;31.40;;;21.67;;
44204;SDS011;30163;42.698;23.344;2023-06-26T02:17:07;33.45;;;20.55;;
44204;SDS011;30163;42.698;23.344;2023-06-26T02:19:33;37.03;;;21.98;;
44204;SDS011;30163;42.698;23.344;2023-06-26T02:21:59;32.17;;;20.85;;
44204;SDS011;30163;42.698;23.344;2023-06-26T02:24:24;38.55;;;23.00;;
44204;SDS011;30163;42.698;23.344;2023-06-26T02:26:50;39.70;;;23.30;;
44204;SDS011;30163;42.698;23.344;2023-06-26T02:29:15;36.38;;;23.75;;
44204;SDS011;30163;42.698;23.344;2023-06-26T02:31:41;44.50;;;23.45;;
44204;SDS011;30163;42.698;23.344;2023-06-26T02:34:06;42.20;;;24.55;;
44204;SDS011;30163;42.698;23.344;2023-06-26T02:36:32;45.00;;;24.25;;
44204;SDS011;30163;42.698;23.344;2023-06-26T02:38:57;42.30;;;25.02;;
44204;SDS011;30163;42.698;23.344;2023-06-26T02:41:23;39.65;;;25.23;;
44204;SDS011;30163;42.698;23.344;2023-06-26T02:43:48;36.42;;;25.08;;
44204;SDS011;30163;42.698;23.344;2023-06-26T02:46:13;40.13;;;24.77;;
44204;SDS011;30163;42.698;23.344;2023-06-26T02:48:39;44.03;;;26.00;;
44204;SDS011;30163;42.698;23.344;2023-06-26T02:51:04;47.55;;;28.38;;
44204;SDS011;30163;42.698;23.344;2023-06-26T02:53:30;43.72;;;27.80;;
44204;SDS011;30163;42.698;23.344;2023-06-26T02:55:56;46.10;;;28.02;;
44204;SDS011;30163;42.698;23.344;2023-06-26T02:58:21;47.58;;;29.45;;
44204;SDS011;30163;42.698;23.344;2023-06-26T03:00:47;48.28;;;30.60;;
44204;SDS011;30163;42.698;23.344;2023-06-26T03:03:13;45.25;;;31.17;;
44204;SDS011;30163;42.698;23.344;2023-06-26T03:05:38;41.25;;;30.13;;
44204;SDS011;30163;42.698;23.344;2023-06-26T03:08:04;46.58;;;30.40;;
44204;SDS011;30163;42.698;23.344;2023-06-26T03:10:29;49.58;;;30.50;;
44204;SDS011;30163;42.698;23.344;2023-06-26T03:12:55;51.35;;;32.33;;
44204;SDS011;30163;42.698;23.344;2023-06-26T03:15:20;49.35;;;31.10;;
44204;SDS011;30163;42.698;23.344;2023-06-26T03:17:46;51.92;;;32.40;;
44204;SDS011;30163;42.698;23.344;2023-06-26T03:20:11;43.70;;;30.13;;
44204;SDS011;30163;42.698;23.344;2023-06-26T03:22:36;45.00;;;32.05;;
44204;SDS011;30163;42.698;23.344;2023-06-26T03:25:02;51.90;;;31.73;;
44204;SDS011;30163;42.698;23.344;2023-06-26T03:27:28;50.53;;;31.30;;
44204;SDS011;30163;42.698;23.344;2023-06-26T03:29:53;42.72;;;28.52;;
44204;SDS011;30163;42.698;23.344;2023-06-26T03:32:19;46.42;;;28.77;;
44204;SDS011;30163;42.698;23.344;2023-06-26T03:34:44;45.05;;;28.95;;
44204;SDS011;30163;42.698;23.344;2023-06-26T03:37:09;50.70;;;28.45;;
44204;SDS011;30163;42.698;23.344;2023-06-26T03:39:35;47.45;;;28.73;;
44204;SDS011;30163;42.698;23.344;2023-06-26T03:42:01;44.28;;;29.23;;
44204;SDS011;30163;42.698;23.344;2023-06-26T03:44:27;50.42;;;28.55;;
44204;SDS011;30163;42.698;23.344;2023-06-26T03:46:53;45.33;;;29.35;;
44204;SDS011;30163;42.698;23.344;2023-06-26T03:49:18;42.05;;;30.27;;
44204;SDS011;30163;42.698;23.344;2023-06-26T03:51:44;48.47;;;27.58;;
44204;SDS011;30163;42.698;23.344;2023-06-26T03:54:10;43.03;;;28.05;;
44204;SDS011;30163;42.698;23.344;2023-06-26T03:56:35;37.60;;;27.05;;
44204;SDS011;30163;42.698;23.344;2023-06-26T03:59:01;37.22;;;26.58;;
44204;SDS011;30163;42.698;23.344;2023-06-26T04:01:26;42.90;;;28.27;;
44204;SDS011;30163;42.698;23.344;2023-06-26T04:03:52;42.88;;;26.20;;
44204;SDS011;30163;42.698;23.344;2023-06-26T04:06:18;41.83;;;24.90;;
44204;SDS011;30163;42.698;23.344;2023-06-26T04:08:43;41.03;;;27.20;;
44204;SDS011;30163;42.698;23.344;2023-06-26T04:11:09;39.50;;;26.60;;
44204;SDS011;30163;42.698;23.344;2023-06-26T04:13:34;35.38;;;24.48;;
44204;SDS011;30163;42.698;23.344;2023-06-26T04:15:59;38.45;;;24.67;;
44204;SDS011;30163;42.698;23.344;2023-06-26T04:18:25;38.33;;;24.02;;
44204;SDS011;30163;42.698;23.344;2023-06-26T04:21:03;36.67;;;23.85;;
44204;SDS011;30163;42.698;23.344;2023-06-26T04:23:36;36.17;;;23.08;;
44204;SDS011;30163;42.698;23.344;2023-06-26T04:26:02;37.38;;;23.73;;
44204;SDS011;30163;42.698;23.344;2023-06-26T04:28:29;37.67;;;24.52;;
44204;SDS011;30163;42.698;23.344;2023-06-26T04:30:55;32.95;;;23.58;;
44204;SDS011;30163;42.698;23.344;2023-06-26T04:33:21;34.85;;;26.38;;
44204;SDS011;30163;42.698;23.344;2023-06-26T04:35:46;33.45;;;24.13;;
44204;SDS011;30163;42.698;23.344;2023-06-26T04:38:14;46.88;;;25.83;;
44204;SDS011;30163;42.698;23.344;2023-06-26T04:40:40;34.95;;;25.10;;
44204;SDS011;30163;42.698;23.344;2023-06-26T04:43:05;36.92;;;24.60;;
44204;SDS011;30163;42.698;23.344;2023-06-26T04:45:31;36.30;;;24.80;;
44204;SDS011;30163;42.698;23.344;2023-06-26T04:47:56;44.35;;;24.58;;
44204;SDS011;30163;42.698;23.344;2023-06-26T04:50:22;33.30;;;22.83;;
44204;SDS011;30163;42.698;23.344;2023-06-26T04:52:47;32.38;;;23.45;;
44204;SDS011;30163;42.698;23.344;2023-06-26T04:55:12;40.03;;;23.08;;
44204;SDS011;30163;42.698;23.344;2023-06-26T04:57:38;41.13;;;23.42;;
44204;SDS011;30163;42.698;23.344;2023-06-26T05:00:03;37.53;;;23.17;;
44204;SDS011;30163;42.698;23.344;2023-06-26T05:02:35;31.63;;;21.38;;
44204;SDS011;30163;42.698;23.344;2023-06-26T05:05:01;33.58;;;23.13;;
44204;SDS011;30163;42.698;23.344;2023-06-26T05:07:27;35.95;;;23.50;;
44204;SDS011;30163;42.698;23.344;2023-06-26T05:09:52;32.72;;;21.98;;
44204;SDS011;30163;42.698;23.344;2023-06-26T05:12:18;28.73;;;22.08;;
44204;SDS011;30163;42.698;23.344;2023-06-26T05:14:43;30.35;;;20.08;;
44204;SDS011;30163;42.698;23.344;2023-06-26T05:17:08;34.58;;;22.33;;
44204;SDS011;30163;42.698;23.344;2023-06-26T05:19:34;31.27;;;21.73;;
44204;SDS011;30163;42.698;23.344;2023-06-26T05:22:00;31.02;;;22.73;;
44204;SDS011;30163;42.698;23.344;2023-06-26T05:24:29;31.10;;;21.17;;
44204;SDS011;30163;42.698;23.344;2023-06-26T05:26:55;38.22;;;22.13;;
44204;SDS011;30163;42.698;23.344;2023-06-26T05:29:21;29.40;;;21.25;;
44204;SDS011;30163;42.698;23.344;2023-06-26T05:31:46;31.30;;;21.23;;
44204;SDS011;30163;42.698;23.344;2023-06-26T05:34:12;30.77;;;20.98;;
44204;SDS011;30163;42.698;23.344;2023-06-26T05:36:38;28.73;;;20.30;;
44204;SDS011;30163;42.698;23.344;2023-06-26T05:39:04;32.50;;;21.48;;
44204;SDS011;30163;42.698;23.344;2023-06-26T05:41:30;29.77;;;19.15;;
44204;SDS011;30163;42.698;23.344;2023-06-26T05:43:55;31.02;;;19.85;;
44204;SDS011;30163;42.698;23.344;2023-06-26T05:46:20;29.88;;;19.80;;
44204;SDS011;30163;42.698;23.344;2023-06-26T05:48:46;29.27;;;20.20;;
44204;SDS011;30163;42.698;23.344;2023-06-26T05:51:12;30.95;;;19.50;;
44204;SDS011;30163;42.698;23.344;2023-06-26T05:53:38;25.50;;;17.95;;
44204;SDS011;30163;42.698;23.344;2023-06-26T05:56:03;33.20;;;20.50;;
44204;SDS011;30163;42.698;23.344;2023-06-26T05:58:29;35.80;;;19.38;;
44204;SDS011;30163;42.698;23.344;2023-06-26T06:00:55;28.25;;;19.73;;
44204;SDS011;30163;42.698;23.344;2023-06-26T06:03:21;28.73;;;20.02;;
44204;SDS011;30163;42.698;23.344;2023-06-26T06:05:46;32.22;;;20.90;;
44204;SDS011;30163;42.698;23.344;2023-06-26T06:08:12;30.00;;;19.75;;
44204;SDS011;30163;42.698;23.344;2023-06-26T06:10:37;26.38;;;18.38;;
44204;SDS011;30163;42.698;23.344;2023-06-26T06:13:03;26.38;;;18.90;;
44204;SDS011;30163;42.698;23.344;2023-06-26T06:15:28;34.58;;;18.05;;
44204;SDS011;30163;42.698;23.344;2023-06-26T06:17:53;35.13;;;19.55;;
44204;SDS011;30163;42.698;23.344;2023-06-26T06:20:19;27.40;;;17.95;;
44204;SDS011;30163;42.698;23.344;2023-06-26T06:22:45;28.55;;;18.33;;
44204;SDS011;30163;42.698;23.344;2023-06-26T06:25:10;33.78;;;18.95;;
44204;SDS011;30163;42.698;23.344;2023-06-26T06:27:36;27.95;;;17.23;;
44204;SDS011;30163;42.698;23.344;2023-06-26T06:30:01;22.02;;;14.98;;
44204;SDS011;30163;42.698;23.344;2023-06-26T06:32:27;33.75;;;15.40;;
44204;SDS011;30163;42.698;23.344;2023-06-26T06:34:53;25.90;;;17.60;;
44204;SDS011;30163;42.698;23.344;2023-06-26T06:37:18;27.10;;;15.43;;
44204;SDS011;30163;42.698;23.344;2023-06-26T06:39:44;29.00;;;17.88;;
44204;SDS011;30163;42.698;23.344;2023-06-26T06:42:09;24.00;;;16.48;;
44204;SDS011;30163;42.698;23.344;2023-06-26T06:44:34;21.60;;;14.85;;
44204;SDS011;30163;42.698;23.344;2023-06-26T06:47:00;23.00;;;15.50;;
44204;SDS011;30163;42.698;23.344;2023-06-26T06:49:25;20.20;;;14.35;;
44204;SDS011;30163;42.698;23.344;2023-06-26T06:51:51;19.45;;;14.57;;
44204;SDS011;30163;42.698;23.344;2023-06-26T06:54:16;22.02;;;14.20;;
44204;SDS011;30163;42.698;23.344;2023-06-26T06:56:42;28.33;;;13.57;;
44204;SDS011;30163;42.698;23.344;2023-06-26T06:59:07;23.77;;;13.93;;
44204;SDS011;30163;42.698;23.344;2023-06-26T07:01:33;17.70;;;13.23;;
44204;SDS011;30163;42.698;23.344;2023-06-26T07:03:58;17.35;;;12.70;;
44204;SDS011;30163;42.698;23.344;2023-06-26T07:06:24;17.98;;;12.57;;
44204;SDS011;30163;42.698;23.344;2023-06-26T07:08:49;18.65;;;12.68;;
44204;SDS011;30163;42.698;23.344;2023-06-26T07:11:15;23.30;;;13.07;;
44204;SDS011;30163;42.698;23.344;2023-06-26T07:13:41;27.10;;;12.82;;
44204;SDS011;30163;42.698;23.344;2023-06-26T07:16:06;22.88;;;12.70;;
44204;SDS011;30163;42.698;23.344;2023-06-26T07:18:32;19.65;;;11.38;;
44204;SDS011;30163;42.698;23.344;2023-06-26T07:20:57;14.85;;;11.30;;
44204;SDS011;30163;42.698;23.344;2023-06-26T07:23:22;20.77;;;10.80;;
44204;SDS011;30163;42.698;23.344;2023-06-26T07:25:48;16.70;;;10.10;;
44204;SDS011;30163;42.698;23.344;2023-06-26T07:28:13;15.63;;;10.27;;
44204;SDS011;30163;42.698;23.344;2023-06-26T07:30:39;15.48;;;9.23;;
44204;SDS011;30163;42.698;23.344;2023-06-26T07:33:04;13.43;;;9.43;;
44204;SDS011;30163;42.698;23.344;2023-06-26T07:35:30;17.02;;;9.50;;
44204;SDS011;30163;42.698;23.344;2023-06-26T07:37:55;11.18;;;8.20;;
44204;SDS011;30163;42.698;23.344;2023-06-26T07:40:21;19.48;;;8.90;;
44204;SDS011;30163;42.698;23.344;2023-06-26T07:42:46;12.93;;;9.57;;
44204;SDS011;30163;42.698;23.344;2023-06-26T07:45:12;13.55;;;9.02;;
44204;SDS011;30163;42.698;23.344;2023-06-26T07:47:38;16.08;;;8.50;;
44204;SDS011;30163;42.698;23.344;2023-06-26T07:50:04;16.02;;;8.52;;
44204;SDS011;30163;42.698;23.344;2023-06-26T07:52:29;13.35;;;7.70;;
44204;SDS011;30163;42.698;23.344;2023-06-26T07:54:57;14.02;;;8.63;;
44204;SDS011;30163;42.698;23.344;2023-06-26T07:57:23;15.93;;;9.40;;
44204;SDS011;30163;42.698;23.344;2023-06-26T08:00:07;19.75;;;9.32;;
44204;SDS011;30163;42.698;23.344;2023-06-26T08:02:33;15.40;;;9.75;;
44204;SDS011;30163;42.698;23.344;2023-06-26T08:04:58;11.93;;;8.75;;
44204;SDS011;30163;42.698;23.344;2023-06-26T08:07:24;14.68;;;8.02;;
44204;SDS011;30163;42.698;23.344;2023-06-26T08:09:49;16.50;;;8.23;;
44204;SDS011;30163;42.698;23.344;2023-06-26T08:12:15;13.25;;;8.25;;
44204;SDS011;30163;42.698;23.344;2023-06-26T08:14:40;13.93;;;9.82;;
44204;SDS011;30163;42.698;23.344;2023-06-26T08:17:05;14.75;;;9.02;;
44204;SDS011;30163;42.698;23.344;2023-06-26T08:19:31;14.23;;;9.27;;
44204;SDS011;30163;42.698;23.344;2023-06-26T08:21:56;13.35;;;8.25;;
44204;SDS011;30163;42.698;23.344;2023-06-26T08:24:22;19.50;;;9.32;;
44204;SDS011;30163;42.698;23.344;2023-06-26T08:26:47;16.52;;;9.07;;
44204;SDS011;30163;42.698;23.344;2023-06-26T08:29:13;18.08;;;9.63;;
44204;SDS011;30163;42.698;23.344;2023-06-26T08:31:39;19.17;;;8.82;;
44204;SDS011;30163;42.698;23.344;2023-06-26T08:34:05;21.85;;;8.90;;
44204;SDS011;30163;42.698;23.344;2023-06-26T08:36:31;19.33;;;9.27;;
44204;SDS011;30163;42.698;23.344;2023-06-26T08:38:57;13.70;;;7.10;;
44204;SDS011;30163;42.698;23.344;2023-06-26T08:41:23;12.43;;;7.88;;
44204;SDS011;30163;42.698;23.344;2023-06-26T08:43:48;10.95;;;7.50;;
44204;SDS011;30163;42.698;23.344;2023-06-26T08:46:16;10.13;;;6.70;;
44204;SDS011;30163;42.698;23.344;2023-06-26T08:48:41;11.55;;;6.80;;
44204;SDS011;30163;42.698;23.344;2023-06-26T08:51:15;13.07;;;7.90;;
44204;SDS011;30163;42.698;23.344;2023-06-26T08:53:57;10.23;;;7.63;;
44204;SDS011;30163;42.698;23.344;2023-06-26T08:58:49;10.52;;;7.50;;
44204;SDS011;30163;42.698;23.344;2023-06-26T09:01:15;18.90;;;8.20;;
44204;SDS011;30163;42.698;23.344;2023-06-26T09:03:41;12.55;;;6.97;;
44204;SDS011;30163;42.698;23.344;2023-06-26T09:06:07;11.48;;;7.78;;
44204;SDS011;30163;42.698;23.344;2023-06-26T09:08:32;13.32;;;7.80;;
44204;SDS011;30163;42.698;23.344;2023-06-26T09:10:58;14.13;;;7.00;;
44204;SDS011;30163;42.698;23.344;2023-06-26T09:13:23;13.10;;;7.22;;
44204;SDS011;30163;42.698;23.344;2023-06-26T09:15:49;16.35;;;7.40;;
44204;SDS011;30163;42.698;23.344;2023-06-26T09:18:18;13.70;;;7.35;;
44204;SDS011;30163;42.698;23.344;2023-06-26T09:20:44;10.07;;;7.47;;
44204;SDS011;30163;42.698;23.344;2023-06-26T09:23:10;9.00;;;6.63;;
44204;SDS011;30163;42.698;23.344;2023-06-26T09:25:37;13.32;;;7.15;;
44204;SDS011;30163;42.698;23.344;2023-06-26T09:28:03;15.63;;;7.43;;
44204;SDS011;30163;42.698;23.344;2023-06-26T09:30:29;17.00;;;7.90;;
44204;SDS011;30163;42.698;23.344;2023-06-26T09:32:57;10.45;;;7.07;;
44204;SDS011;30163;42.698;23.344;2023-06-26T09:35:22;9.05;;;6.30;;
44204;SDS011;30163;42.698;23.344;2023-06-26T09:37:48;8.52;;;6.47;;
44204;SDS011;30163;42.698;23.344;2023-06-26T09:40:14;9.68;;;6.95;;
44204;SDS011;30163;42.698;23.344;2023-06-26T09:42:40;13.43;;;6.35;;
44204;SDS011;30163;42.698;23.344;2023-06-26T09:45:06;16.15;;;6.70;;
44204;SDS011;30163;42.698;23.344;2023-06-26T09:47:32;12.63;;;6.75;;
44204;SDS011;30163;42.698;23.344;2023-06-26T09:49:59;13.30;;;7.15;;
44204;SDS011;30163;42.698;23.344;2023-06-26T09:52:25;17.33;;;7.35;;
44204;SDS011;30163;42.698;23.344;2023-06-26T09:54:51;15.85;;;7.95;;
44204;SDS011;30163;42.698;23.344;2023-06-26T09:57:34;13.68;;;6.78;;
44204;SDS011;30163;42.698;23.344;2023-06-26T09:59:59;9.05;;;6.47;;
44204;SDS011;30163;42.698;23.344;2023-06-26T10:02:25;14.40;;;6.50;;
44204;SDS011;30163;42.698;23.344;2023-06-26T10:04:51;10.93;;;6.95;;
44204;SDS011;30163;42.698;23.344;2023-06-26T10:07:16;13.88;;;8.43;;
44204;SDS011;30163;42.698;23.344;2023-06-26T10:09:43;13.10;;;9.00;;
44204;SDS011;30163;42.698;23.344;2023-06-26T10:14:55;13.43;;;8.55;;
44204;SDS011;30163;42.698;23.344;2023-06-26T10:17:22;15.52;;;8.23;;
44204;SDS011;30163;42.698;23.344;2023-06-26T10:19:50;27.00;;;8.32;;
44204;SDS011;30163;42.698;23.344;2023-06-26T10:22:19;14.70;;;8.60;;
44204;SDS011;30163;42.698;23.344;2023-06-26T10:24:45;16.30;;;7.85;;
44204;SDS011;30163;42.698;23.344;2023-06-26T10:27:20;14.10;;;8.20;;
44204;SDS011;30163;42.698;23.344;2023-06-26T10:29:47;18.48;;;8.48;;
44204;SDS011;30163;42.698;23.344;2023-06-26T10:32:16;11.65;;;6.80;;
44204;SDS011;30163;42.698;23.344;2023-06-26T10:34:42;13.68;;;7.78;;
44204;SDS011;30163;42.698;23.344;2023-06-26T10:37:08;13.00;;;7.28;;
44204;SDS011;30163;42.698;23.344;2023-06-26T10:42:38;13.25;;;6.70;;
44204;SDS011;30163;42.698;23.344;2023-06-26T10:47:39;15.00;;;7.80;;
44204;SDS011;30163;42.698;23.344;2023-06-26T10:53:08;12.23;;;7.20;;
44204;SDS011;30163;42.698;23.344;2023-06-26T10:55:41;19.17;;;8.82;;
44204;SDS011;30163;42.698;23.344;2023-06-26T11:00:52;13.57;;;7.57;;
44204;SDS011;30163;42.698;23.344;2023-06-26T11:03:24;8.75;;;6.63;;
44204;SDS011;30163;42.698;23.344;2023-06-26T11:06:08;13.13;;;7.10;;
44204;SDS011;30163;42.698;23.344;2023-06-26T11:08:44;13.68;;;7.40;;
44204;SDS011;30163;42.698;23.344;2023-06-26T11:11:13;9.93;;;7.30;;
44204;SDS011;30163;42.698;23.344;2023-06-26T11:13:39;10.27;;;6.57;;
44204;SDS011;30163;42.698;23.344;2023-06-26T11:16:05;14.90;;;7.63;;
44204;SDS011;30163;42.698;23.344;2023-06-26T11:18:31;10.45;;;7.30;;
44204;SDS011;30163;42.698;23.344;2023-06-26T11:21:18;11.48;;;6.55;;
44204;SDS011;30163;42.698;23.344;2023-06-26T11:23:42;30.77;;;7.75;;
44204;SDS011;30163;42.698;23.344;2023-06-26T11:26:14;13.20;;;7.50;;
44204;SDS011;30163;42.698;23.344;2023-06-26T11:28:50;11.98;;;6.65;;
44204;SDS011;30163;42.698;23.344;2023-06-26T11:31:23;10.45;;;7.75;;
44204;SDS011;30163;42.698;23.344;2023-06-26T11:33:56;12.68;;;8.35;;
44204;SDS011;30163;42.698;23.344;2023-06-26T11:36:25;15.13;;;7.88;;
44204;SDS011;30163;42.698;23.344;2023-06-26T11:38:55;13.43;;;7.53;;
44204;SDS011;30163;42.698;23.344;2023-06-26T11:41:23;11.40;;;6.88;;
44204;SDS011;30163;42.698;23.344;2023-06-26T11:43:49;16.00;;;6.40;;
44204;SDS011;30163;42.698;23.344;2023-06-26T11:46:17;10.15;;;7.18;;
44204;SDS011;30163;42.698;23.344;2023-06-26T11:48:43;10.88;;;6.20;;
44204;SDS011;30163;42.698;23.344;2023-06-26T11:51:09;11.05;;;7.18;;
44204;SDS011;30163;42.698;23.344;2023-06-26T11:53:41;10.27;;;7.35;;
44204;SDS011;30163;42.698;23.344;2023-06-26T11:56:08;11.57;;;7.97;;
44204;SDS011;30163;42.698;23.344;2023-06-26T11:58:34;13.15;;;7.45;;
44204;SDS011;30163;42.698;23.344;2023-06-26T12:01:00;13.45;;;7.30;;
44204;SDS011;30163;42.698;23.344;2023-06-26T12:03:25;15.20;;;8.35;;
44204;SDS011;30163;42.698;23.344;2023-06-26T12:05:51;11.50;;;7.90;;
44204;SDS011;30163;42.698;23.344;2023-06-26T12:08:17;14.65;;;7.75;;
44204;SDS011;30163;42.698;23.344;2023-06-26T12:10:43;16.55;;;7.55;;
44204;SDS011;30163;42.698;23.344;2023-06-26T12:13:08;16.48;;;7.22;;
44204;SDS011;30163;42.698;23.344;2023-06-26T12:15:34;11.55;;;6.97;;
44204;SDS011;30163;42.698;23.344;2023-06-26T12:17:59;14.23;;;7.50;;
44204;SDS011;30163;42.698;23.344;2023-06-26T12:20:25;14.23;;;7.45;;
44204;SDS011;30163;42.698;23.344;2023-06-26T12:22:51;13.48;;;7.22;;
44204;SDS011;30163;42.698;23.344;2023-06-26T12:25:23;11.75;;;6.55;;
44204;SDS011;30163;42.698;23.344;2023-06-26T12:27:49;10.90;;;7.18;;
44204;SDS011;30163;42.698;23.344;2023-06-26T12:30:15;10.38;;;6.85;;
44204;SDS011;30163;42.698;23.344;2023-06-26T12:32:43;11.52;;;7.45;;
44204;SDS011;30163;42.698;23.344;2023-06-26T12:35:10;11.07;;;6.68;;
44204;SDS011;30163;42.698;23.344;2023-06-26T12:37:38;11.32;;;7.22;;
44204;SDS011;30163;42.698;23.344;2023-06-26T12:40:17;9.35;;;7.00;;
44204;SDS011;30163;42.698;23.344;2023-06-26T12:42:45;11.25;;;7.68;;
44204;SDS011;30163;42.698;23.344;2023-06-26T12:45:10;9.73;;;6.82;;
44204;SDS011;30163;42.698;23.344;2023-06-26T12:47:37;13.45;;;7.57;;
44204;SDS011;30163;42.698;23.344;2023-06-26T12:50:04;16.48;;;7.50;;
44204;SDS011;30163;42.698;23.344;2023-06-26T12:52:30;10.73;;;7.22;;
44204;SDS011;30163;42.698;23.344;2023-06-26T12:54:56;12.13;;;7.70;;
44204;SDS011;30163;42.698;23.344;2023-06-26T12:57:22;13.25;;;7.70;;
44204;SDS011;30163;42.698;23.344;2023-06-26T12:59:48;10.52;;;7.80;;
44204;SDS011;30163;42.698;23.344;2023-06-26T13:02:13;13.60;;;8.23;;
44204;SDS011;30163;42.698;23.344;2023-06-26T13:04:39;12.10;;;8.00;;
44204;SDS011;30163;42.698;23.344;2023-06-26T13:07:09;13.13;;;7.60;;
44204;SDS011;30163;42.698;23.344;2023-06-26T13:09:35;15.77;;;7.03;;
44204;SDS011;30163;42.698;23.344;2023-06-26T13:12:02;16.42;;;8.70;;
44204;SDS011;30163;42.698;23.344;2023-06-26T13:14:28;12.90;;;7.07;;
44204;SDS011;30163;42.698;23.344;2023-06-26T13:16:54;11.05;;;6.78;;
44204;SDS011;30163;42.698;23.344;2023-06-26T13:19:20;16.83;;;7.22;;
44204;SDS011;30163;42.698;23.344;2023-06-26T13:21:45;12.77;;;7.68;;
44204;SDS011;30163;42.698;23.344;2023-06-26T13:24:11;16.88;;;7.85;;
44204;SDS011;30163;42.698;23.344;2023-06-26T13:26:36;12.27;;;7.55;;
44204;SDS011;30163;42.698;23.344;2023-06-26T13:29:01;11.98;;;7.03;;
44204;SDS011;30163;42.698;23.344;2023-06-26T13:31:27;15.45;;;6.82;;
44204;SDS011;30163;42.698;23.344;2023-06-26T13:33:52;18.55;;;6.95;;
44204;SDS011;30163;42.698;23.344;2023-06-26T13:36:18;14.10;;;6.65;;
44204;SDS011;30163;42.698;23.344;2023-06-26T13:38:44;17.75;;;6.95;;
44204;SDS011;30163;42.698;23.344;2023-06-26T13:41:09;10.93;;;6.32;;
44204;SDS011;30163;42.698;23.344;2023-06-26T13:43:35;9.57;;;7.25;;
44204;SDS011;30163;42.698;23.344;2023-06-26T13:46:01;10.45;;;7.22;;
44204;SDS011;30163;42.698;23.344;2023-06-26T13:48:28;9.48;;;6.93;;
44204;SDS011;30163;42.698;23.344;2023-06-26T13:50:53;12.07;;;6.43;;
44204;SDS011;30163;42.698;23.344;2023-06-26T13:53:19;21.17;;;7.50;;
44204;SDS011;30163;42.698;23.344;2023-06-26T13:55:45;15.50;;;7.32;;
44204;SDS011;30163;42.698;23.344;2023-06-26T13:58:10;13.45;;;7.30;;
44204;SDS011;30163;42.698;23.344;2023-06-26T14:00:36;8.98;;;6.75;;
44204;SDS011;30163;42.698;23.344;2023-06-26T14:03:02;17.40;;;7.18;;
44204;SDS011;30163;42.698;23.344;2023-06-26T14:05:29;9.60;;;6.82;;
44204;SDS011;30163;42.698;23.344;2023-06-26T14:07:54;9.85;;;6.82;;
44204;SDS011;30163;42.698;23.344;2023-06-26T14:10:20;20.20;;;7.53;;
44204;SDS011;30163;42.698;23.344;2023-06-26T14:12:46;14.68;;;6.88;;
44204;SDS011;30163;42.698;23.344;2023-06-26T14:15:12;9.75;;;7.03;;
44204;SDS011;30163;42.698;23.344;2023-06-26T14:17:37;9.85;;;7.18;;
44204;SDS011;30163;42.698;23.344;2023-06-26T14:20:05;13.98;;;7.45;;
44204;SDS011;30163;42.698;23.344;2023-06-26T14:22:35;10.02;;;7.07;;
44204;SDS011;30163;42.698;23.344;2023-06-26T14:25:01;12.18;;;6.80;;
44204;SDS011;30163;42.698;23.344;2023-06-26T14:27:27;14.55;;;8.07;;
44204;SDS011;30163;42.698;23.344;2023-06-26T14:29:53;13.80;;;7.90;;
44204;SDS011;30163;42.698;23.344;2023-06-26T14:32:18;14.93;;;8.07;;
44204;SDS011;30163;42.698;23.344;2023-06-26T14:34:43;15.27;;;9.23;;
44204;SDS011;30163;42.698;23.344;2023-06-26T14:37:09;14.85;;;9.73;;